createdAt,value
2018-12-16T00:01:22.713Z,5.45
2018-12-16T00:04:29.267Z,5.22
2018-12-16T00:07:35.652Z,4.22
2018-12-16T00:10:41.756Z,3.58
2018-12-16T00:13:48.270Z,3.62
2018-12-16T00:17:05.674Z,5.15
2018-12-16T00:20:12.437Z,6.35
2018-12-16T00:23:18.868Z,6.03
2018-12-16T00:26:31.568Z,5.08
2018-12-16T00:29:37.942Z,5.62
2018-12-16T00:32:44.254Z,5.78
2018-12-16T00:35:50.822Z,5.05
2018-12-16T00:38:57.236Z,5.50
2018-12-16T00:42:03.572Z,6.22
2018-12-16T00:45:10.086Z,4.83
2018-12-16T00:48:16.458Z,5.50
2018-12-16T00:51:23.045Z,5.47
2018-12-16T00:54:29.874Z,6.65
2018-12-16T00:57:36.304Z,6.50
2018-12-16T01:00:42.769Z,5.05
2018-12-16T01:03:49.033Z,5.47
2018-12-16T01:06:55.610Z,5.25
2018-12-16T01:10:01.925Z,4.55
2018-12-16T01:13:08.180Z,5.90
2018-12-16T01:16:14.400Z,5.62
2018-12-16T01:19:20.700Z,5.83
2018-12-16T01:22:27.276Z,5.75
2018-12-16T01:25:33.325Z,5.60
2018-12-16T01:28:40.269Z,5.92
2018-12-16T01:31:47.537Z,6.28
2018-12-16T01:34:53.895Z,6.28
2018-12-16T01:38:00.175Z,6.75
2018-12-16T01:41:06.387Z,6.35
2018-12-16T01:44:12.748Z,6.50
2018-12-16T01:47:18.957Z,5.90
2018-12-16T01:50:25.271Z,6.17
2018-12-16T01:53:31.522Z,5.58
2018-12-16T01:56:37.947Z,5.62
2018-12-16T01:59:44.272Z,4.62
2018-12-16T02:02:50.605Z,4.10
2018-12-16T02:05:56.981Z,4.85
2018-12-16T02:09:05.548Z,6.15
2018-12-16T02:12:11.887Z,7.83
2018-12-16T02:15:18.369Z,8.18
2018-12-16T02:18:24.910Z,5.28
2018-12-16T02:21:31.094Z,5.53
2018-12-16T02:24:37.297Z,5.97
2018-12-16T02:27:43.707Z,5.20
2018-12-16T02:30:50.215Z,6.15
2018-12-16T02:33:56.739Z,5.60
2018-12-16T02:37:03.040Z,5.28
2018-12-16T02:40:09.371Z,5.58
2018-12-16T02:43:15.839Z,10.88
2018-12-16T02:46:22.128Z,10.88
2018-12-16T02:49:28.679Z,5.83
2018-12-16T02:52:34.915Z,5.70
2018-12-16T02:55:41.356Z,5.00
2018-12-16T02:58:47.683Z,5.12
2018-12-16T03:01:53.775Z,6.25
2018-12-16T03:04:59.952Z,5.12
2018-12-16T03:08:06.526Z,4.97
2018-12-16T03:11:12.759Z,5.87
2018-12-16T03:14:18.992Z,5.33
2018-12-16T03:17:25.371Z,5.80
2018-12-16T03:20:32.004Z,5.42
2018-12-16T03:23:38.098Z,5.78
2018-12-16T03:26:44.325Z,5.80
2018-12-16T03:29:50.993Z,6.37
2018-12-16T03:32:58.029Z,6.00
2018-12-16T03:36:04.472Z,6.37
2018-12-16T03:39:10.870Z,6.37
2018-12-16T03:42:17.134Z,5.70
2018-12-16T03:45:23.273Z,5.55
2018-12-16T03:48:29.959Z,5.60
2018-12-16T03:51:36.301Z,6.00
2018-12-16T03:54:42.652Z,6.20
2018-12-16T03:57:49.224Z,6.58
2018-12-16T04:00:55.513Z,6.53
2018-12-16T04:04:02.462Z,5.55
2018-12-16T04:07:08.694Z,5.03
2018-12-16T04:10:15.026Z,6.15
2018-12-16T04:13:21.623Z,7.20
2018-12-16T04:16:27.861Z,7.37
2018-12-16T04:19:34.768Z,6.65
2018-12-16T04:22:40.987Z,6.53
2018-12-16T04:25:47.252Z,5.87
2018-12-16T04:28:53.518Z,6.28
2018-12-16T04:31:59.996Z,6.65
2018-12-16T04:35:06.926Z,5.42
2018-12-16T04:38:13.025Z,5.35
2018-12-16T04:41:19.653Z,5.37
2018-12-16T04:44:25.757Z,6.37
2018-12-16T04:47:32.701Z,6.78
2018-12-16T04:50:38.915Z,7.47
2018-12-16T04:53:46.557Z,6.22
2018-12-16T04:56:52.792Z,6.20
2018-12-16T04:59:58.988Z,6.03
2018-12-16T05:03:06.002Z,5.67
2018-12-16T05:06:12.226Z,6.28
2018-12-16T05:09:18.331Z,6.70
2018-12-16T05:12:24.629Z,6.30
2018-12-16T05:15:30.869Z,6.40
2018-12-16T05:18:37.103Z,5.95
2018-12-16T05:21:43.347Z,5.10
2018-12-16T05:24:49.941Z,6.20
2018-12-16T05:27:56.806Z,6.85
2018-12-16T05:31:03.252Z,8.30
2018-12-16T05:34:09.387Z,6.78
2018-12-16T05:37:15.566Z,7.12
2018-12-16T05:40:21.751Z,6.08
2018-12-16T05:43:28.702Z,7.72
2018-12-16T05:46:35.125Z,6.83
2018-12-16T05:49:41.738Z,7.40
2018-12-16T05:52:47.991Z,8.43
2018-12-16T05:55:54.274Z,7.28
2018-12-16T05:59:00.918Z,8.30
2018-12-16T06:02:07.811Z,5.78
2018-12-16T06:05:14.181Z,6.55
2018-12-16T06:08:20.477Z,7.42
2018-12-16T06:11:26.735Z,7.05
2018-12-16T06:14:33.339Z,7.30
2018-12-16T06:17:39.644Z,5.80
2018-12-16T06:20:46.122Z,6.08
2018-12-16T06:23:55.519Z,6.40
2018-12-16T06:27:01.675Z,6.22
2018-12-16T06:30:08.673Z,5.42
2018-12-16T06:33:14.921Z,6.97
2018-12-16T06:36:21.261Z,6.50
2018-12-16T06:39:28.089Z,7.97
2018-12-16T06:42:34.279Z,6.33
2018-12-16T06:45:40.831Z,7.22
2018-12-16T06:48:47.124Z,5.83
2018-12-16T06:51:53.354Z,6.00
2018-12-16T06:54:59.795Z,7.58
2018-12-16T06:58:06.085Z,6.67
2018-12-16T07:01:12.413Z,5.70
2018-12-16T07:04:18.600Z,7.08
2018-12-16T07:07:25.236Z,6.83
2018-12-16T07:10:31.463Z,5.15
2018-12-16T07:13:38.509Z,7.65
2018-12-16T07:16:44.939Z,7.08
2018-12-16T07:19:54.073Z,6.28
2018-12-16T07:23:01.700Z,9.13
2018-12-16T07:26:07.905Z,5.55
2018-12-16T07:29:14.523Z,7.33
2018-12-16T07:32:20.720Z,6.12
2018-12-16T07:35:28.353Z,7.97
2018-12-16T07:38:34.566Z,6.95
2018-12-16T07:41:40.964Z,7.37
2018-12-16T07:44:47.319Z,7.35
2018-12-16T07:47:53.766Z,7.95
2018-12-16T07:51:00.314Z,7.45
2018-12-16T07:54:06.709Z,7.03
2018-12-16T07:57:13.003Z,11.03
2018-12-16T08:00:19.197Z,11.00
2018-12-16T08:03:25.983Z,9.33
2018-12-16T08:06:32.811Z,10.20
2018-12-16T08:09:39.207Z,8.55
2018-12-16T08:12:45.476Z,9.38
2018-12-16T08:15:54.491Z,6.35
2018-12-16T08:19:06.851Z,9.70
2018-12-16T08:22:09.235Z,8.25
2018-12-16T08:25:15.374Z,9.08
2018-12-16T08:28:21.652Z,7.17
2018-12-16T08:31:28.033Z,17.73
2018-12-16T08:34:34.413Z,7.92
2018-12-16T08:37:40.597Z,6.95
2018-12-16T08:40:47.132Z,9.93
2018-12-16T08:43:53.418Z,9.23
2018-12-16T08:47:00.057Z,9.20
2018-12-16T08:50:07.177Z,8.70
2018-12-16T08:53:13.275Z,9.68
2018-12-16T08:56:19.679Z,7.85
2018-12-16T08:59:26.046Z,8.73
2018-12-16T09:02:35.726Z,16.73
2018-12-16T09:05:42.007Z,9.60
2018-12-16T09:08:48.552Z,29.90
2018-12-16T09:11:54.892Z,9.05
2018-12-16T09:15:01.107Z,7.47
2018-12-16T09:18:07.497Z,9.70
2018-12-16T09:21:14.027Z,7.90
2018-12-16T09:24:20.436Z,8.48
2018-12-16T09:27:26.754Z,8.15
2018-12-16T09:30:33.015Z,7.67
2018-12-16T09:33:39.288Z,10.25
2018-12-16T09:36:45.380Z,7.85
2018-12-16T09:39:51.818Z,7.10
2018-12-16T09:42:58.047Z,6.70
2018-12-16T09:46:04.677Z,7.67
2018-12-16T09:49:11.102Z,6.20
2018-12-16T09:52:17.393Z,7.15
2018-12-16T09:55:23.926Z,7.75
2018-12-16T09:58:30.307Z,7.80
2018-12-16T10:01:36.560Z,5.60
2018-12-16T10:04:42.879Z,6.58
2018-12-16T10:07:49.333Z,5.80
2018-12-16T10:10:55.567Z,6.60
2018-12-16T10:14:01.795Z,7.28
2018-12-16T10:17:08.035Z,6.28
2018-12-16T10:20:14.455Z,9.03
2018-12-16T10:23:20.692Z,8.08
2018-12-16T10:26:27.553Z,7.25
2018-12-16T10:29:33.687Z,8.15
2018-12-16T10:32:39.789Z,7.30
2018-12-16T10:35:45.934Z,7.95
2018-12-16T10:38:52.275Z,8.13
2018-12-16T10:41:58.576Z,9.93
2018-12-16T10:45:05.688Z,7.33
2018-12-16T10:48:13.295Z,7.80
2018-12-16T10:51:19.825Z,7.12
2018-12-16T10:54:26.082Z,7.22
2018-12-16T10:57:32.454Z,7.80
2018-12-16T11:00:44.056Z,8.00
2018-12-16T11:03:50.184Z,8.45
2018-12-16T11:06:56.559Z,9.35
2018-12-16T11:10:02.844Z,7.67
2018-12-16T11:13:09.543Z,8.03
2018-12-16T11:16:15.705Z,7.83
2018-12-16T11:19:22.393Z,8.18
2018-12-16T11:22:29.535Z,7.78
2018-12-16T11:25:37.665Z,6.47
2018-12-16T11:28:43.785Z,6.58
2018-12-16T11:31:50.038Z,7.72
2018-12-16T11:34:56.473Z,7.60
2018-12-16T11:38:02.882Z,7.47
2018-12-16T11:41:09.185Z,7.62
2018-12-16T11:44:15.351Z,7.87
2018-12-16T11:47:21.933Z,7.15
2018-12-16T11:50:28.256Z,8.98
2018-12-16T11:53:34.382Z,8.13
2018-12-16T11:56:40.499Z,8.25
2018-12-16T11:59:46.910Z,8.63
2018-12-16T12:02:53.322Z,7.75
2018-12-16T12:05:59.644Z,8.78
2018-12-16T12:09:06.748Z,7.37
2018-12-16T12:12:13.154Z,8.25
2018-12-16T12:15:19.459Z,8.35
2018-12-16T12:18:25.675Z,9.10
2018-12-16T12:21:31.974Z,8.78
2018-12-16T12:24:38.450Z,9.03
2018-12-16T12:27:44.581Z,7.92
2018-12-16T12:30:51.120Z,7.62
2018-12-16T12:33:57.359Z,7.95
2018-12-16T12:37:03.614Z,8.58
2018-12-16T12:40:10.105Z,7.67
2018-12-16T12:43:16.386Z,8.95
2018-12-16T12:46:22.854Z,7.45
2018-12-16T12:49:29.218Z,7.72
2018-12-16T12:52:35.638Z,8.28
2018-12-16T12:55:42.060Z,9.43
2018-12-16T12:58:48.280Z,8.85
2018-12-16T13:01:54.910Z,9.43
2018-12-16T13:05:01.139Z,8.43
2018-12-16T13:08:07.983Z,8.43
2018-12-16T13:11:14.164Z,7.55
2018-12-16T13:14:20.750Z,8.48
2018-12-16T13:17:27.429Z,7.72
2018-12-16T13:20:33.673Z,7.80
2018-12-16T13:23:40.117Z,8.80
2018-12-16T13:26:46.851Z,8.93
2018-12-16T13:29:53.164Z,7.62
2018-12-16T13:32:59.826Z,8.53
2018-12-16T13:36:08.813Z,8.33
2018-12-16T13:39:15.383Z,7.75
2018-12-16T13:42:21.781Z,9.60
2018-12-16T13:45:28.132Z,6.72
2018-12-16T13:48:34.290Z,7.62
2018-12-16T13:51:41.183Z,8.38
2018-12-16T13:54:49.058Z,7.20
2018-12-16T13:57:55.667Z,7.92
2018-12-16T14:01:01.801Z,7.37
2018-12-16T14:04:08.098Z,9.83
2018-12-16T14:07:14.479Z,8.98
2018-12-16T14:10:20.650Z,8.20
2018-12-16T14:13:27.503Z,10.10
2018-12-16T14:16:33.879Z,9.63
2018-12-16T14:19:40.345Z,8.88
2018-12-16T14:22:46.654Z,9.15
2018-12-16T14:25:52.936Z,8.10
2018-12-16T14:29:00.209Z,9.75
2018-12-16T14:32:06.548Z,10.03
2018-12-16T14:35:13.085Z,8.73
2018-12-16T14:38:20.059Z,9.13
2018-12-16T14:41:26.370Z,9.90
2018-12-16T14:44:32.879Z,8.85
2018-12-16T14:47:40.152Z,9.30
2018-12-16T14:50:46.704Z,8.95
2018-12-16T14:53:52.796Z,8.25
2018-12-16T14:57:00.102Z,9.23
2018-12-16T15:00:09.522Z,9.63
2018-12-16T15:03:15.902Z,9.68
2018-12-16T15:06:22.400Z,9.78
2018-12-16T15:09:28.710Z,9.58
2018-12-16T15:12:35.113Z,9.68
2018-12-16T15:15:41.326Z,8.25
2018-12-16T15:19:18.710Z,8.88
2018-12-16T15:22:24.866Z,9.95
2018-12-16T15:25:31.596Z,9.15
2018-12-16T15:28:37.982Z,10.95
2018-12-16T15:31:44.241Z,8.98
2018-12-16T15:34:50.527Z,8.80
2018-12-16T15:37:56.836Z,9.15
2018-12-16T15:41:04.059Z,8.25
2018-12-16T15:44:10.341Z,8.08
2018-12-16T15:47:16.774Z,8.95
2018-12-16T15:50:23.115Z,9.85
2018-12-16T15:53:29.492Z,9.50
2018-12-16T15:56:36.423Z,10.55
2018-12-16T15:59:42.557Z,7.45
2018-12-16T16:02:48.668Z,10.82
2018-12-16T16:05:55.173Z,10.30
2018-12-16T16:09:01.331Z,8.28
2018-12-16T16:12:08.171Z,10.25
2018-12-16T16:15:14.641Z,9.85
2018-12-16T16:18:20.980Z,9.08
2018-12-16T16:21:28.280Z,9.65
2018-12-16T16:24:34.505Z,11.33
2018-12-16T16:27:40.699Z,10.38
2018-12-16T16:30:47.207Z,10.98
2018-12-16T16:33:53.651Z,9.90
2018-12-16T16:36:59.931Z,9.30
2018-12-16T16:40:07.510Z,12.35
2018-12-16T16:43:14.062Z,11.00
2018-12-16T16:46:20.470Z,10.30
2018-12-16T16:49:26.588Z,9.58
2018-12-16T16:52:33.341Z,11.18
2018-12-16T16:55:39.781Z,12.93
2018-12-16T16:58:46.259Z,11.33
2018-12-16T17:01:52.702Z,10.20
2018-12-16T17:04:59.100Z,10.43
2018-12-16T17:08:06.037Z,10.20
2018-12-16T17:11:12.642Z,9.90
2018-12-16T17:14:19.481Z,8.63
2018-12-16T17:17:25.619Z,9.40
2018-12-16T17:20:31.845Z,11.15
2018-12-16T17:23:38.323Z,10.98
2018-12-16T17:26:44.523Z,10.20
2018-12-16T17:29:50.787Z,9.45
2018-12-16T17:32:57.013Z,9.30
2018-12-16T17:36:03.932Z,9.50
2018-12-16T17:39:10.224Z,9.98
2018-12-16T17:42:16.504Z,9.68
2018-12-16T17:45:22.744Z,11.55
2018-12-16T17:48:28.908Z,11.35
2018-12-16T17:51:36.111Z,11.05
2018-12-16T17:54:42.557Z,10.78
2018-12-16T17:57:48.840Z,9.35
2018-12-16T18:00:55.369Z,9.88
2018-12-16T18:04:01.616Z,10.00
2018-12-16T18:07:08.054Z,8.90
2018-12-16T18:10:14.390Z,10.43
2018-12-16T18:13:21.269Z,11.45
2018-12-16T18:16:27.481Z,10.50
2018-12-16T18:19:33.926Z,11.73
2018-12-16T18:22:40.372Z,10.60
2018-12-16T18:25:46.556Z,10.38
2018-12-16T18:28:52.967Z,9.10
2018-12-16T18:31:59.302Z,9.95
2018-12-16T18:35:06.514Z,9.80
2018-12-16T18:38:12.970Z,9.68
2018-12-16T18:41:19.268Z,10.18
2018-12-16T18:44:25.423Z,11.38
2018-12-16T18:47:31.832Z,8.80
2018-12-16T18:50:38.062Z,10.35
2018-12-16T18:53:44.322Z,10.10
2018-12-16T18:56:51.198Z,10.35
2018-12-16T18:59:57.858Z,9.03
2018-12-16T19:03:04.056Z,9.90
2018-12-16T19:06:11.007Z,9.28
2018-12-16T19:09:17.234Z,9.88
2018-12-16T19:12:23.374Z,10.90
2018-12-16T19:15:29.997Z,12.03
2018-12-16T19:18:36.563Z,9.08
2018-12-16T19:21:43.160Z,10.78
2018-12-16T19:24:49.669Z,11.90
2018-12-16T19:27:55.904Z,10.45
2018-12-16T19:31:02.331Z,9.28
2018-12-16T19:34:08.436Z,10.32
2018-12-16T19:37:14.906Z,10.48
2018-12-16T19:40:21.080Z,10.15
2018-12-16T19:43:27.276Z,11.08
2018-12-16T19:46:34.498Z,10.13
2018-12-16T19:49:40.710Z,10.08
2018-12-16T19:52:46.885Z,10.18
2018-12-16T19:55:53.200Z,9.50
2018-12-16T19:58:59.679Z,9.78
2018-12-16T20:02:06.017Z,6.45
2018-12-16T20:05:17.621Z,7.87
2018-12-16T20:08:24.295Z,7.55
2018-12-16T20:11:30.602Z,12.28
2018-12-16T20:14:37.138Z,10.72
2018-12-16T20:17:43.426Z,11.30
2018-12-16T20:20:49.659Z,9.70
2018-12-16T20:23:55.901Z,10.60
2018-12-16T20:27:02.831Z,10.65
2018-12-16T20:30:09.980Z,11.12
2018-12-16T20:33:16.564Z,10.68
2018-12-16T20:36:22.889Z,11.38
2018-12-16T20:39:29.412Z,9.30
2018-12-16T20:42:35.503Z,12.00
2018-12-16T20:45:42.026Z,10.28
2018-12-16T20:48:48.276Z,11.08
2018-12-16T20:51:54.474Z,11.12
2018-12-16T20:55:00.694Z,10.58
2018-12-16T20:58:07.368Z,12.03
2018-12-16T21:01:13.625Z,11.65
2018-12-16T21:04:20.102Z,11.15
2018-12-16T21:07:27.062Z,11.15
2018-12-16T21:10:33.478Z,12.68
2018-12-16T21:13:45.412Z,13.93
2018-12-16T21:16:56.748Z,11.85
2018-12-16T21:20:03.709Z,12.60
2018-12-16T21:23:09.939Z,12.05
2018-12-16T21:26:16.546Z,10.10
2018-12-16T21:29:23.258Z,12.35
2018-12-16T21:32:29.595Z,13.72
2018-12-16T21:35:35.921Z,12.28
2018-12-16T21:38:42.200Z,13.10
2018-12-16T21:41:48.358Z,12.15
2018-12-16T21:44:56.288Z,12.30
2018-12-16T21:48:03.276Z,10.78
2018-12-16T21:51:09.542Z,13.00
2018-12-16T21:54:15.882Z,12.47
2018-12-16T21:57:22.053Z,11.20
2018-12-16T22:00:29.521Z,13.20
2018-12-16T22:03:36.029Z,11.43
2018-12-16T22:06:42.377Z,13.43
2018-12-16T22:09:48.515Z,12.98
2018-12-16T22:12:55.247Z,12.95
2018-12-16T22:16:01.464Z,13.53
2018-12-16T22:19:07.593Z,13.35
2018-12-16T22:22:13.743Z,13.18
2018-12-16T22:25:20.108Z,12.68
2018-12-16T22:28:26.585Z,13.18
2018-12-16T22:31:32.855Z,12.95
2018-12-16T22:34:39.110Z,14.30
2018-12-16T22:37:45.405Z,12.95
2018-12-16T22:40:51.675Z,14.23
2018-12-16T22:43:58.079Z,12.93
2018-12-16T22:47:04.382Z,13.28
2018-12-16T22:50:10.682Z,12.15
2018-12-16T22:53:17.027Z,11.45
2018-12-16T22:56:23.361Z,14.07
2018-12-16T22:59:29.480Z,14.83
2018-12-16T23:02:35.585Z,11.10
2018-12-16T23:05:41.946Z,13.25
2018-12-16T23:08:48.223Z,12.40
2018-12-16T23:11:54.524Z,13.55
2018-12-16T23:15:01.267Z,13.40
2018-12-16T23:18:07.372Z,14.05
2018-12-16T23:21:14.117Z,13.08
2018-12-16T23:24:20.409Z,13.60
2018-12-16T23:27:26.710Z,13.28
2018-12-16T23:30:32.802Z,14.45
2018-12-16T23:33:39.125Z,11.95
2018-12-16T23:36:45.238Z,13.25
2018-12-16T23:39:51.955Z,14.13
2018-12-16T23:42:58.141Z,13.90
2018-12-16T23:46:04.576Z,12.55
2018-12-16T23:49:10.737Z,11.57
2018-12-16T23:52:16.944Z,11.48
2018-12-16T23:55:23.244Z,11.70
2018-12-16T23:58:29.567Z,12.13
